KGLW/GLW METAR and TAF weather

Enter ICAO airport designator
Station Type Date Time Source
KGLW METAR 2019/06/19 07:15 UTC NOAA

KGLW 190715Z AUTO 00000KT 10SM CLR 21/20 A2985 RMK AO2 T02110199


Station Type Date Time Source
KGLW Decoded METAR 2019/06/19 07:15 UTC NOAA

Glasgow, Glasgow Municipal Airport, KY, United States (KGLW) 37-01-54N 085-57-13W
Jun 19, 2019 - 03:15 AM EDT / 2019.06.19 0715 UTC
Wind: Calm:0
Visibility: 10 mile(s):0
Sky conditions: clear
Temperature: 70.0 F (21.1 C)
Dew Point: 67.8 F (19.9 C)
Relative Humidity: 92%
Pressure (altimeter): 29.85 in. Hg (1010 hPa)
ob: KGLW 190715Z AUTO 00000KT 10SM CLR 21/20 A2985 RMK AO2 T02110199
cycle: 7

Station Type Date Time Source
KGLW TAF UTC NOAA

Error!

Example: see airport list